createdAt,value
2023-01-13T00:01:41.800Z,12.18
2023-01-13T00:04:12.874Z,12.16
2023-01-13T00:06:45.007Z,12.19
2023-01-13T00:09:27.283Z,12.29
2023-01-13T00:12:00.841Z,12.32
2023-01-13T00:14:32.686Z,12.30
2023-01-13T00:17:19.966Z,12.31
2023-01-13T00:19:49.724Z,12.37
2023-01-13T00:22:49.495Z,12.41
2023-01-13T00:25:25.846Z,12.30
2023-01-13T00:27:54.689Z,12.26
2023-01-13T00:30:37.554Z,12.25
2023-01-13T00:33:09.208Z,12.29
2023-01-13T00:35:42.083Z,12.25
2023-01-13T00:38:12.570Z,12.24
2023-01-13T00:40:46.775Z,12.20
2023-01-13T00:43:32.306Z,12.25
2023-01-13T00:49:19.461Z,12.32
2023-01-13T00:52:41.921Z,12.29
2023-01-13T00:55:14.883Z,12.13
2023-01-13T00:57:57.183Z,12.15
2023-01-13T01:01:11.004Z,12.16
2023-01-13T01:03:50.183Z,12.28
2023-01-13T01:06:32.076Z,12.23
2023-01-13T01:09:19.710Z,12.26
2023-01-13T01:12:18.947Z,12.21
2023-01-13T01:15:19.775Z,12.11
2023-01-13T01:21:25.703Z,12.18
2023-01-13T01:23:57.999Z,12.12
2023-01-13T01:26:53.205Z,12.10
2023-01-13T01:29:48.673Z,12.08
2023-01-13T01:32:40.848Z,12.08
2023-01-13T01:35:24.128Z,12.12
2023-01-13T01:37:56.444Z,12.07
2023-01-13T01:40:29.558Z,12.02
2023-01-13T01:43:31.491Z,12.07
2023-01-13T01:46:31.832Z,12.10
2023-01-13T01:49:22.847Z,12.10
2023-01-13T01:55:07.927Z,11.96
2023-01-13T01:57:42.970Z,11.93
2023-01-13T02:00:19.556Z,11.93
2023-01-13T02:02:55.405Z,12.01
2023-01-13T02:05:35.039Z,12.01
2023-01-13T02:08:12.028Z,12.05
2023-01-13T02:11:11.587Z,12.04
2023-01-13T02:13:51.368Z,12.09
2023-01-13T02:16:45.772Z,12.08
2023-01-13T02:19:41.192Z,12.02
2023-01-13T02:22:42.438Z,12.03
2023-01-13T02:25:39.629Z,12.09
2023-01-13T02:28:30.216Z,12.07
2023-01-13T02:31:35.856Z,11.98
2023-01-13T02:34:31.652Z,11.89
2023-01-13T02:37:31.212Z,11.88
2023-01-13T02:40:25.381Z,11.88
2023-01-13T02:43:26.210Z,11.88
2023-01-13T02:46:27.445Z,11.88
2023-01-13T02:49:32.574Z,11.82
2023-01-13T02:52:22.370Z,11.85
2023-01-13T02:55:04.758Z,11.78
2023-01-13T02:57:39.802Z,11.77
2023-01-13T03:00:24.266Z,11.82
2023-01-13T03:06:00.585Z,11.72
2023-01-13T03:08:45.052Z,11.71
2023-01-13T03:11:21.457Z,11.77
2023-01-13T03:14:27.461Z,11.81
2023-01-13T03:17:11.344Z,11.84
2023-01-13T03:19:47.929Z,11.84
2023-01-13T03:22:58.229Z,11.90
2023-01-13T03:25:31.343Z,11.95
2023-01-13T03:31:14.957Z,11.91
2023-01-13T03:34:01.162Z,11.86
2023-01-13T03:36:30.439Z,11.93
2023-01-13T03:39:19.453Z,11.91
2023-01-13T03:42:19.920Z,11.97
2023-01-13T03:45:07.633Z,12.01
2023-01-13T03:47:43.996Z,12.02
2023-01-13T03:50:28.328Z,12.06
2023-01-13T03:53:09.473Z,12.02
2023-01-13T03:55:44.514Z,12.01
2023-01-13T03:58:32.788Z,12.03
2023-01-13T04:01:20.710Z,12.02
2023-01-13T04:04:03.811Z,11.94
2023-01-13T04:07:04.942Z,11.94
2023-01-13T04:10:01.866Z,11.91
2023-01-13T04:12:51.804Z,11.97
2023-01-13T04:15:22.965Z,11.98
2023-01-13T04:17:53.260Z,12.00
2023-01-13T04:20:34.781Z,11.98
2023-01-13T04:23:04.356Z,12.01
2023-01-13T04:25:36.146Z,12.04
2023-01-13T04:28:09.473Z,12.00
2023-01-13T04:30:48.338Z,11.98
2023-01-13T04:33:40.014Z,11.98
2023-01-13T04:36:12.997Z,12.00
2023-01-13T04:38:53.236Z,11.95
2023-01-13T04:41:56.178Z,11.90
2023-01-13T04:44:33.800Z,11.95
2023-01-13T04:47:06.243Z,11.95
2023-01-13T04:49:41.889Z,11.96
2023-01-13T04:52:12.147Z,12.01
2023-01-13T04:54:44.982Z,12.04
2023-01-13T04:57:15.478Z,12.09
2023-01-13T04:59:53.359Z,12.10
2023-01-13T05:02:26.952Z,12.02
2023-01-13T05:05:04.969Z,12.00
2023-01-13T05:07:38.121Z,12.02
2023-01-13T05:10:11.965Z,12.03
2023-01-13T05:13:03.882Z,12.02
2023-01-13T05:16:14.697Z,12.08
2023-01-13T05:18:49.660Z,12.10
2023-01-13T05:21:43.832Z,12.14
2023-01-13T05:24:41.086Z,12.16
2023-01-13T05:27:33.727Z,12.14
2023-01-13T05:30:09.860Z,12.10
2023-01-13T05:32:37.107Z,12.09
2023-01-13T05:35:06.969Z,12.11
2023-01-13T05:37:36.306Z,12.04
2023-01-13T05:40:27.597Z,12.09
2023-01-13T05:43:41.572Z,12.13
2023-01-13T05:46:09.478Z,12.19
2023-01-13T05:48:40.877Z,12.21
2023-01-13T05:51:08.770Z,12.23
2023-01-13T05:53:35.752Z,12.23
2023-01-13T05:56:06.766Z,12.19
2023-01-13T05:58:38.334Z,12.25
2023-01-13T06:01:07.367Z,12.28
2023-01-13T06:03:37.485Z,12.31
2023-01-13T06:06:12.061Z,12.30
2023-01-13T06:08:42.271Z,12.36
2023-01-13T06:11:14.806Z,12.27
2023-01-13T06:13:41.584Z,12.20
2023-01-13T06:16:12.528Z,12.15
2023-01-13T06:18:43.179Z,12.20
2023-01-13T06:21:10.141Z,12.28
2023-01-13T06:23:40.028Z,12.29
2023-01-13T06:26:23.414Z,12.29
2023-01-13T06:28:50.509Z,12.33
2023-01-13T06:31:17.664Z,12.33
2023-01-13T06:33:48.525Z,12.30
2023-01-13T06:36:22.417Z,12.34
2023-01-13T06:38:57.485Z,12.29
2023-01-13T06:41:49.896Z,12.21
2023-01-13T06:44:20.647Z,12.03
2023-01-13T06:46:47.816Z,11.74
2023-01-13T06:49:19.972Z,11.56
2023-01-13T06:52:03.274Z,11.42
2023-01-13T06:54:41.829Z,11.31
2023-01-13T06:57:13.145Z,11.23
2023-01-13T06:59:50.618Z,11.17
2023-01-13T07:02:26.473Z,11.20
2023-01-13T07:05:01.758Z,11.25
2023-01-13T07:08:00.842Z,11.38
2023-01-13T07:10:28.513Z,11.48
2023-01-13T07:13:14.317Z,11.51
2023-01-13T07:15:41.439Z,11.55
2023-01-13T07:18:13.215Z,11.45
2023-01-13T07:20:47.095Z,11.42
2023-01-13T07:23:17.239Z,11.42
2023-01-13T07:25:44.359Z,11.40
2023-01-13T07:28:15.900Z,11.44
2023-01-13T07:30:47.882Z,11.41
2023-01-13T07:33:35.979Z,11.43
2023-01-13T07:36:06.050Z,11.45
2023-01-13T07:38:35.584Z,11.45
2023-01-13T07:41:41.678Z,11.51
2023-01-13T07:44:20.797Z,11.54
2023-01-13T07:46:50.596Z,11.51
2023-01-13T07:49:17.970Z,11.44
2023-01-13T07:51:53.552Z,11.38
2023-01-13T07:54:25.532Z,11.33
2023-01-13T07:57:05.463Z,11.41
2023-01-13T08:03:04.943Z,11.33
2023-01-13T08:05:35.147Z,11.35
2023-01-13T08:08:10.935Z,11.35
2023-01-13T08:13:48.742Z,11.12
2023-01-13T08:16:15.737Z,10.99
2023-01-13T08:18:46.152Z,10.93
2023-01-13T08:21:16.844Z,11.02
2023-01-13T08:23:46.437Z,11.07
2023-01-13T08:26:15.464Z,11.07
2023-01-13T08:28:42.085Z,11.14
2023-01-13T08:31:16.546Z,11.12
2023-01-13T08:36:36.718Z,10.96
2023-01-13T08:39:06.737Z,10.96
2023-01-13T08:41:52.018Z,11.16
2023-01-13T08:44:19.280Z,11.29
2023-01-13T08:46:53.016Z,11.31
2023-01-13T08:49:44.595Z,11.41
2023-01-13T08:52:11.807Z,11.46
2023-01-13T08:54:41.295Z,11.46
2023-01-13T08:57:15.475Z,11.36
2023-01-13T08:59:46.398Z,11.27
2023-01-13T09:02:15.216Z,11.27
2023-01-13T09:04:46.637Z,11.32
2023-01-13T09:07:13.708Z,11.31
2023-01-13T09:09:41.853Z,11.26
2023-01-13T09:12:30.099Z,11.17
2023-01-13T09:14:57.182Z,11.08
2023-01-13T09:17:30.764Z,11.14
2023-01-13T09:20:05.707Z,11.31
2023-01-13T09:22:36.981Z,11.42
2023-01-13T09:25:04.817Z,11.44
2023-01-13T09:27:33.895Z,11.60
2023-01-13T09:30:17.591Z,11.89
2023-01-13T09:32:45.005Z,12.17
2023-01-13T09:35:14.983Z,12.36
2023-01-13T09:37:44.901Z,12.46
2023-01-13T09:40:24.239Z,12.58
2023-01-13T09:43:19.147Z,12.80
2023-01-13T09:45:52.586Z,12.82
2023-01-13T09:48:32.656Z,12.97
2023-01-13T09:51:13.462Z,13.09
2023-01-13T09:53:44.496Z,13.07
2023-01-13T09:56:12.139Z,13.01
2023-01-13T09:58:38.809Z,13.00
2023-01-13T10:01:19.382Z,12.89
2023-01-13T10:03:55.376Z,12.77
2023-01-13T10:06:34.209Z,12.73
2023-01-13T10:09:01.319Z,12.62
2023-01-13T10:12:01.898Z,12.49
2023-01-13T10:14:38.029Z,12.42
2023-01-13T10:17:14.947Z,12.73
2023-01-13T10:19:47.249Z,12.86
2023-01-13T10:22:36.092Z,13.11
2023-01-13T10:25:10.204Z,13.46
2023-01-13T10:27:40.419Z,13.48
2023-01-13T10:30:13.257Z,13.48
2023-01-13T10:32:52.825Z,13.65
2023-01-13T10:35:39.436Z,13.83
2023-01-13T10:38:23.030Z,14.04
2023-01-13T10:40:51.563Z,14.06
2023-01-13T10:43:19.183Z,14.01
2023-01-13T10:45:56.183Z,14.11
2023-01-13T10:48:23.786Z,14.04
2023-01-13T10:50:50.839Z,13.72
2023-01-13T10:53:25.380Z,13.51
2023-01-13T10:56:16.193Z,13.20
2023-01-13T10:58:43.506Z,12.98
2023-01-13T11:01:31.383Z,13.02
2023-01-13T11:04:07.774Z,13.19
2023-01-13T11:06:35.757Z,13.49
2023-01-13T11:09:30.193Z,13.36
2023-01-13T11:12:00.609Z,13.35
2023-01-13T11:14:56.556Z,13.45
2023-01-13T11:17:50.161Z,13.39
2023-01-13T11:20:22.219Z,13.34
2023-01-13T11:22:57.591Z,13.15
2023-01-13T11:25:45.905Z,13.08
2023-01-13T11:28:43.463Z,12.90
2023-01-13T11:31:33.618Z,12.88
2023-01-13T11:34:14.906Z,12.92
2023-01-13T11:36:54.179Z,12.91
2023-01-13T11:39:44.642Z,12.84
2023-01-13T11:42:36.730Z,12.82
2023-01-13T11:45:29.690Z,12.98
2023-01-13T11:48:09.849Z,14.66
2023-01-13T11:51:19.161Z,17.91
2023-01-13T11:53:59.662Z,18.66
2023-01-13T11:56:52.819Z,19.99
2023-01-13T12:00:01.978Z,21.83
2023-01-13T12:03:04.828Z,22.09
2023-01-13T12:05:36.550Z,21.32
2023-01-13T12:08:12.834Z,19.21
2023-01-13T12:10:40.803Z,17.54
2023-01-13T12:13:25.159Z,16.17
2023-01-13T12:16:02.500Z,15.24
2023-01-13T12:18:41.784Z,14.87
2023-01-13T12:21:20.722Z,14.61
2023-01-13T12:23:55.433Z,14.45
2023-01-13T12:26:23.794Z,14.30
2023-01-13T12:29:01.519Z,14.28
2023-01-13T12:31:33.756Z,16.88
2023-01-13T12:34:09.960Z,19.30
2023-01-13T12:36:47.144Z,20.48
2023-01-13T12:39:36.354Z,22.04
2023-01-13T12:42:54.008Z,21.95
2023-01-13T12:45:26.365Z,22.60
2023-01-13T12:48:21.720Z,23.07
2023-01-13T12:51:05.723Z,21.87
2023-01-13T12:53:33.948Z,20.70
2023-01-13T12:56:26.277Z,21.82
2023-01-13T12:59:14.810Z,22.59
2023-01-13T13:01:47.413Z,22.28
2023-01-13T13:04:18.537Z,22.29
2023-01-13T13:06:54.095Z,21.76
2023-01-13T13:09:29.772Z,20.99
2023-01-13T13:12:00.138Z,19.00
2023-01-13T13:14:40.319Z,16.84
2023-01-13T13:17:25.086Z,15.51
2023-01-13T13:19:52.239Z,14.74
2023-01-13T13:22:19.991Z,14.31
2023-01-13T13:24:50.351Z,13.94
2023-01-13T13:27:28.960Z,13.64
2023-01-13T13:30:03.727Z,13.51
2023-01-13T13:33:00.575Z,13.46
2023-01-13T13:35:30.465Z,13.37
2023-01-13T13:38:19.009Z,13.34
2023-01-13T13:41:27.723Z,13.43
2023-01-13T13:44:12.999Z,13.56
2023-01-13T13:46:48.475Z,13.45
2023-01-13T13:49:15.164Z,13.45
2023-01-13T13:52:02.987Z,13.33
2023-01-13T13:54:33.481Z,13.51
2023-01-13T13:57:03.308Z,13.42
2023-01-13T13:59:30.952Z,13.25
2023-01-13T14:02:03.679Z,13.08
2023-01-13T14:04:33.389Z,12.96
2023-01-13T14:07:05.409Z,12.87
2023-01-13T14:09:44.448Z,12.86
2023-01-13T14:12:25.145Z,12.90
2023-01-13T14:15:07.999Z,12.76
2023-01-13T14:17:46.135Z,12.70
2023-01-13T14:20:22.016Z,12.79
2023-01-13T14:23:02.533Z,12.99
2023-01-13T14:25:33.777Z,12.97
2023-01-13T14:28:11.053Z,12.69
2023-01-13T14:30:45.200Z,12.44
2023-01-13T14:33:38.954Z,12.29
2023-01-13T14:36:10.323Z,12.07
2023-01-13T14:38:37.890Z,12.00
2023-01-13T14:41:22.967Z,11.90
2023-01-13T14:43:51.312Z,11.76
2023-01-13T14:46:29.407Z,11.69
2023-01-13T14:49:09.220Z,11.67
2023-01-13T14:51:42.179Z,11.56
2023-01-13T14:54:49.380Z,11.51
2023-01-13T14:57:49.222Z,11.42
2023-01-13T15:00:28.538Z,11.35
2023-01-13T15:03:20.283Z,11.31
2023-01-13T15:05:59.677Z,11.28
2023-01-13T15:08:42.644Z,11.27
2023-01-13T15:11:26.940Z,11.30
2023-01-13T15:14:03.704Z,11.30
2023-01-13T15:16:37.033Z,11.32
2023-01-13T15:19:23.496Z,11.40
2023-01-13T15:21:56.571Z,11.40
2023-01-13T15:24:33.520Z,11.40
2023-01-13T15:27:14.179Z,11.29
2023-01-13T15:29:45.691Z,11.19
2023-01-13T15:32:27.265Z,11.20
2023-01-13T15:34:57.988Z,11.19
2023-01-13T15:37:26.166Z,11.13
2023-01-13T15:39:56.442Z,11.14
2023-01-13T15:42:42.029Z,11.12
2023-01-13T15:45:33.564Z,11.02
2023-01-13T15:48:04.382Z,10.93
2023-01-13T15:50:33.896Z,10.87
2023-01-13T15:53:00.462Z,10.93
2023-01-13T15:55:27.380Z,10.89
2023-01-13T15:57:57.181Z,10.87
2023-01-13T16:00:24.484Z,10.89
2023-01-13T16:02:52.239Z,10.95
2023-01-13T16:05:45.242Z,11.06
2023-01-13T16:08:15.378Z,11.05
2023-01-13T16:10:43.068Z,11.10
2023-01-13T16:13:09.870Z,11.12
2023-01-13T16:15:40.631Z,11.17
2023-01-13T16:18:14.359Z,11.25
2023-01-13T16:20:44.224Z,11.29
2023-01-13T16:23:14.431Z,11.35
2023-01-13T16:25:46.765Z,11.42
2023-01-13T16:28:19.139Z,11.55
2023-01-13T16:30:48.837Z,11.52
2023-01-13T16:33:15.565Z,11.44
2023-01-13T16:36:08.989Z,11.27
2023-01-13T16:38:38.162Z,11.16
2023-01-13T16:41:04.940Z,11.15
2023-01-13T16:43:32.303Z,11.12
2023-01-13T16:45:58.989Z,11.08
2023-01-13T16:48:26.403Z,11.01
2023-01-13T16:50:53.580Z,10.96
2023-01-13T16:53:28.648Z,10.90
2023-01-13T16:55:55.232Z,10.88
2023-01-13T16:58:24.086Z,10.92
2023-01-13T17:00:53.415Z,10.92
2023-01-13T17:03:36.269Z,10.99
2023-01-13T17:06:12.091Z,11.02
2023-01-13T17:09:09.723Z,10.95
2023-01-13T17:11:38.905Z,10.87
2023-01-13T17:14:18.280Z,10.79
2023-01-13T17:17:01.284Z,10.68
2023-01-13T17:19:28.041Z,10.65
2023-01-13T17:21:55.261Z,10.63
2023-01-13T17:24:22.072Z,10.53
2023-01-13T17:26:51.504Z,10.47
2023-01-13T17:29:38.365Z,10.48
2023-01-13T17:32:07.572Z,10.43
2023-01-13T17:34:34.173Z,10.45
2023-01-13T17:37:00.689Z,10.40
2023-01-13T17:39:27.450Z,10.40
2023-01-13T17:44:46.343Z,10.41
2023-01-13T17:47:16.474Z,10.37
2023-01-13T17:49:43.494Z,10.35
2023-01-13T17:52:16.119Z,10.30
2023-01-13T17:54:45.895Z,10.30
2023-01-13T17:57:27.417Z,10.23
2023-01-13T17:59:54.890Z,10.15
2023-01-13T18:02:21.920Z,10.12
2023-01-13T18:04:52.095Z,10.15
2023-01-13T18:07:23.308Z,10.19
2023-01-13T18:09:50.164Z,10.23
2023-01-13T18:12:17.487Z,10.28
2023-01-13T18:14:46.668Z,10.43
2023-01-13T18:17:19.608Z,10.50
2023-01-13T18:20:07.849Z,10.63
2023-01-13T18:22:53.251Z,10.78
2023-01-13T18:25:39.093Z,10.91
2023-01-13T18:28:11.757Z,10.99
2023-01-13T18:30:38.441Z,11.04
2023-01-13T18:33:05.839Z,10.98
2023-01-13T18:35:35.720Z,10.93
2023-01-13T18:38:02.818Z,10.91
2023-01-13T18:40:35.734Z,10.95
2023-01-13T18:43:05.724Z,10.87
2023-01-13T18:45:35.852Z,10.76
2023-01-13T18:48:12.430Z,10.71
2023-01-13T18:50:39.313Z,10.77
2023-01-13T18:53:12.100Z,10.86
2023-01-13T18:55:45.240Z,10.96
2023-01-13T18:58:14.942Z,11.02
2023-01-13T19:00:41.595Z,11.06
2023-01-13T19:05:36.202Z,11.04
2023-01-13T19:08:06.213Z,11.03
2023-01-13T19:10:32.994Z,10.99
2023-01-13T19:13:03.258Z,11.01
2023-01-13T19:15:30.473Z,11.05
2023-01-13T19:17:57.338Z,11.06
2023-01-13T19:20:27.378Z,11.00
2023-01-13T19:22:55.418Z,10.87
2023-01-13T19:25:22.507Z,10.85
2023-01-13T19:27:49.285Z,10.87
2023-01-13T19:30:17.518Z,10.93
2023-01-13T19:32:44.668Z,10.93
2023-01-13T19:35:18.269Z,10.92
2023-01-13T19:37:45.684Z,10.95
2023-01-13T19:40:15.785Z,11.01
2023-01-13T19:43:01.823Z,11.03
2023-01-13T19:45:29.608Z,10.97
2023-01-13T19:47:57.773Z,11.04
2023-01-13T19:50:25.318Z,11.06
2023-01-13T19:52:51.972Z,11.09
2023-01-13T19:55:19.861Z,11.11
2023-01-13T19:57:47.071Z,11.03
2023-01-13T20:00:18.466Z,10.85
2023-01-13T20:02:49.962Z,10.70
2023-01-13T20:05:26.044Z,10.68
2023-01-13T20:07:58.530Z,10.72
2023-01-13T20:10:30.741Z,10.73
2023-01-13T20:12:58.014Z,10.61
2023-01-13T20:15:25.297Z,10.41
2023-01-13T20:17:53.374Z,10.38
2023-01-13T20:20:21.034Z,10.43
2023-01-13T20:22:52.462Z,10.55
2023-01-13T20:25:26.248Z,10.64
2023-01-13T20:27:53.928Z,10.65
2023-01-13T20:30:24.182Z,10.67
2023-01-13T20:32:57.353Z,10.72
2023-01-13T20:35:29.818Z,10.75
2023-01-13T20:37:59.548Z,10.71
2023-01-13T20:40:26.611Z,10.68
2023-01-13T20:42:56.997Z,10.72
2023-01-13T20:45:23.792Z,10.77
2023-01-13T20:47:50.567Z,10.67
2023-01-13T20:50:17.739Z,10.70
2023-01-13T20:52:48.259Z,10.75
2023-01-13T20:55:17.857Z,10.82
2023-01-13T20:57:48.940Z,10.76
2023-01-13T21:00:16.143Z,10.69
2023-01-13T21:02:44.349Z,10.69
2023-01-13T21:05:11.431Z,10.65
2023-01-13T21:07:46.319Z,10.60
2023-01-13T21:10:13.595Z,10.69
2023-01-13T21:13:02.541Z,10.69
2023-01-13T21:15:29.447Z,10.74
2023-01-13T21:18:19.691Z,10.56
2023-01-13T21:20:46.440Z,10.50
2023-01-13T21:23:13.571Z,10.53
2023-01-13T21:25:40.500Z,10.57
2023-01-13T21:28:11.546Z,10.66
2023-01-13T21:30:43.644Z,10.72
2023-01-13T21:33:15.116Z,10.77
2023-01-13T21:35:45.110Z,10.84
2023-01-13T21:38:14.457Z,10.82
2023-01-13T21:40:41.877Z,10.87
2023-01-13T21:43:34.779Z,10.86
2023-01-13T21:46:36.407Z,10.91
2023-01-13T21:49:04.689Z,10.84
2023-01-13T21:51:32.420Z,10.85
2023-01-13T21:53:59.732Z,10.84
2023-01-13T21:56:26.969Z,10.82
2023-01-13T21:58:57.682Z,10.72
2023-01-13T22:01:24.600Z,10.70
2023-01-13T22:04:14.944Z,10.68
2023-01-13T22:06:41.643Z,10.76
2023-01-13T22:09:13.237Z,10.84
2023-01-13T22:11:42.550Z,10.82
2023-01-13T22:14:11.196Z,10.87
2023-01-13T22:16:49.407Z,10.83
2023-01-13T22:19:22.932Z,10.74
2023-01-13T22:21:50.089Z,10.71
2023-01-13T22:24:19.723Z,10.76
2023-01-13T22:26:48.962Z,10.77
2023-01-13T22:29:15.911Z,10.71
2023-01-13T22:31:45.796Z,10.61
2023-01-13T22:34:21.146Z,10.57
2023-01-13T22:36:50.358Z,10.50
2023-01-13T22:39:18.448Z,10.48
2023-01-13T22:41:45.043Z,10.54
2023-01-13T22:44:14.607Z,10.62
2023-01-13T22:46:44.822Z,10.66
2023-01-13T22:49:12.286Z,10.64
2023-01-13T22:51:45.554Z,10.64
2023-01-13T22:54:13.450Z,10.54
2023-01-13T22:56:46.190Z,10.47
2023-01-13T22:59:13.759Z,10.48
2023-01-13T23:01:47.082Z,10.45
2023-01-13T23:04:19.350Z,10.47
2023-01-13T23:06:52.075Z,10.45
2023-01-13T23:09:19.122Z,10.51
2023-01-13T23:11:47.849Z,10.54
2023-01-13T23:14:15.200Z,10.54
2023-01-13T23:16:47.680Z,10.60
2023-01-13T23:19:14.722Z,10.62
2023-01-13T23:21:44.647Z,10.53
2023-01-13T23:24:11.775Z,10.54
2023-01-13T23:26:38.827Z,10.54
2023-01-13T23:29:11.055Z,10.61
2023-01-13T23:31:40.742Z,10.64
2023-01-13T23:34:10.765Z,10.53
2023-01-13T23:36:43.624Z,10.45
2023-01-13T23:39:15.590Z,10.41
2023-01-13T23:41:43.961Z,10.31
2023-01-13T23:44:13.808Z,10.14
2023-01-13T23:46:42.667Z,10.06
2023-01-13T23:49:10.945Z,10.05
2023-01-13T23:51:37.596Z,10.03
2023-01-13T23:54:12.118Z,10.05
2023-01-13T23:56:39.759Z,10.10
2023-01-13T23:59:09.809Z,10.06
